Aviation Weather


METAR: 2022/09/30 03:20 ENVA 300320Z 13005KT 9999 SCT050 BKN070 07/05 Q1007 RMK WIND 670FT 13005KT

Vær-rapport

METAR for
ENVA utstedt den 30/9-2022 klokka 03:20 UTC:


Vind: S?r?stlig svak vind fra 130 grader med en vindhastighet på 5 knop (3 m/s, 9 km/t, Styrke 2)
Sikt: Bedre enn 10 km.
Skyer: Spredte skyer (3/8 - 4/8) oppe i 5000 fot. (1,524 meter)
Skyer: Brutte skyer (5/8 - 7/8) oppe i 7000 fot. (2,134 meter)
Temperatur: 7°C med duggpunkt på 5°C. Temperatur føles som 5.2°C.
Luftfuktigheten er: 87%.
Lufttrykk: 1007 hPa.
Bemerkning:
Vind: I en høyde av 670 fot er det S?r?stlig svak vind fra 130 grader med en vindhastighet på 5 knop (3 m/s, 9 km/t, Styrke 2)


TAF: 2022/09/29 18:57 TAF ENVA 291700Z 2918/3018 10005KT CAVOK

Vær-prognose

Værprognose for
ENVA utstedt den 29/9-2022 klokka 18:57 UTC:


Varsel er gyldig mellom den 29. klokka 18:00 og den 30. klokka 18:00
Vind: ?stlig svak vind fra 100 grader med en vindhastighet på 5 knop (3 m/s, 9 km/t, Styrke 2)
Vær: God sikt og ingen lave skyer